Willowdale, Nebraska
Current Conditions -  °F | °C
As of 6:35 AM on Thursday 29 Jan 2015 (Local Time) from KONL Reporting Station
Overcast Overcast  
Wind Chill: 24°   Ceiling: 2600
Heat Index: 36°   Visibility: 10mi
Dew Point: 28°   Wind: 23mph
Humidity: 75%   Direction: 330°NNW
Pressure: 30.33"   Gusts: 28mph
Location:  42.6164°N, 98.6183°W
Report Text: KONL 291235Z AUTO 33020G24KT 10SM OVC026 02/M02 A3033 RMK AO2 T00201020
Loading
Personal Weather Stations






























Interactive Weather Map New forecast layout! Learn more

10-Day Weather Forecast

Advertisements
Track Severe Weather on mobile